Time;durP1;ratioP1;P1;durP2;ratioP2;P2;SDS_P1;SDS_P2;PMS_P1;PMS_P2;Temp;Humidity;BMP_temperature;BMP_pressure;BME280_temperature;BME280_humidity;BME280_pressure;Samples;Min_cycle;Max_cycle;Signal;HPM_P1;HPM_P2
2022/07/30 00:00:51;;;;;;;1.90;1.80;;;20.20;99.90;;;;;;5198301;28;20326;-62
2022/07/30 00:03:22;;;;;;;1.30;1.20;;;20.20;99.90;;;;;;5215528;28;20027;-62
2022/07/30 00:05:54;;;;;;;1.40;1.30;;;20.20;99.90;;;;;;5166042;28;20059;-62
2022/07/30 00:08:26;;;;;;;1.23;1.00;;;20.10;99.90;;;;;;5216021;28;20025;-62
2022/07/30 00:10:59;;;;;;;0.73;0.73;;;20.20;99.90;;;;;;5198718;28;20032;-63
2022/07/30 00:13:33;;;;;;;1.27;1.17;;;20.10;99.90;;;;;;5214953;28;20330;-62
2022/07/30 00:16:06;;;;;;;0.80;0.80;;;20.00;99.90;;;;;;5215209;28;20027;-62
2022/07/30 00:18:40;;;;;;;0.70;0.70;;;20.00;99.90;;;;;;5215545;28;20039;-62
2022/07/30 00:21:11;;;;;;;1.33;0.90;;;20.00;99.90;;;;;;5197823;28;20028;-62
2022/07/30 00:23:45;;;;;;;1.10;1.02;;;20.00;99.90;;;;;;5214697;28;20025;-62
2022/07/30 00:26:19;;;;;;;2.97;1.27;;;20.00;99.90;;;;;;5216081;28;20197;-61
2022/07/30 00:28:52;;;;;;;0.65;0.65;;;19.90;99.90;;;;;;5197172;28;20416;-62
2022/07/30 00:31:25;;;;;;;0.87;0.87;;;19.80;99.90;;;;;;5196747;28;20318;-62
2022/07/30 00:33:56;;;;;;;0.88;0.88;;;19.70;99.90;;;;;;5217414;28;20024;-62
2022/07/30 00:36:33;;;;;;;0.85;0.85;;;19.70;99.90;;;;;;5216143;28;20318;-61
2022/07/30 00:39:04;;;;;;;0.60;0.60;;;19.50;99.90;;;;;;5197483;28;20063;-61
2022/07/30 00:41:56;;;;;;;0.80;0.80;;;19.50;99.90;;;;;;5212355;28;20051;-61
2022/07/30 00:44:32;;;;;;;0.90;0.80;;;19.40;99.90;;;;;;5197135;28;20021;-61
2022/07/30 00:47:06;;;;;;;0.60;0.60;;;19.40;99.90;;;;;;5214899;28;20024;-61
2022/07/30 00:49:39;;;;;;;0.70;0.70;;;19.50;99.90;;;;;;5180304;28;20055;-60
2022/07/30 00:52:11;;;;;;;0.60;0.60;;;19.50;99.90;;;;;;5222827;28;20017;-61
2022/07/30 00:54:44;;;;;;;1.23;0.98;;;19.60;99.90;;;;;;5222525;28;20263;-61
2022/07/30 00:57:16;;;;;;;0.73;0.73;;;19.50;99.90;;;;;;5221070;28;20235;-61
2022/07/30 00:59:47;;;;;;;1.00;1.00;;;19.50;99.90;;;;;;5209489;28;20302;-61
2022/07/30 01:02:21;;;;;;;1.45;0.80;;;19.60;99.90;;;;;;5217136;28;20017;-61
2022/07/30 01:04:55;;;;;;;0.85;0.85;;;19.50;99.90;;;;;;5185302;28;20318;-60
2022/07/30 01:07:26;;;;;;;0.75;0.75;;;19.50;99.90;;;;;;5179008;28;20341;-61
2022/07/30 01:10:04;;;;;;;0.68;0.68;;;19.50;99.90;;;;;;5214721;28;20024;-61
2022/07/30 01:12:46;;;;;;;1.20;1.10;;;19.50;99.90;;;;;;5194828;28;20407;-61
2022/07/30 01:15:23;;;;;;;0.80;0.80;;;19.50;99.90;;;;;;5198573;28;20239;-61
2022/07/30 01:18:00;;;;;;;0.80;0.80;;;19.60;99.90;;;;;;5201139;28;20043;-61
2022/07/30 01:21:16;;;;;;;1.10;1.00;;;19.60;99.90;;;;;;5197726;28;20018;-61
2022/07/30 01:23:52;;;;;;;0.75;0.75;;;19.60;99.90;;;;;;5153724;28;20347;-61
2022/07/30 01:26:29;;;;;;;1.10;1.00;;;19.60;99.90;;;;;;5154167;28;20029;-61
2022/07/30 01:29:01;;;;;;;1.30;1.15;;;19.60;99.90;;;;;;5137379;28;20038;-61
2022/07/30 01:31:33;;;;;;;1.00;1.00;;;19.50;99.90;;;;;;5164820;28;20040;-60
2022/07/30 01:34:08;;;;;;;1.13;1.02;;;19.40;99.90;;;;;;5157436;28;20366;-61
2022/07/30 01:36:43;;;;;;;1.40;1.15;;;19.40;99.90;;;;;;5173073;28;20369;-60
2022/07/30 01:39:18;;;;;;;0.90;0.90;;;19.40;99.90;;;;;;5156694;28;20040;-61
2022/07/30 01:41:54;;;;;;;1.00;1.00;;;19.30;99.90;;;;;;5175049;28;20257;-61
2022/07/30 01:44:28;;;;;;;0.90;0.90;;;19.40;99.90;;;;;;5152991;28;20102;-60
2022/07/30 01:47:03;;;;;;;2.05;1.23;;;19.40;99.90;;;;;;5171011;28;20300;-60
2022/07/30 01:49:40;;;;;;;0.82;0.82;;;19.40;99.90;;;;;;5177595;28;20018;-61
2022/07/30 01:52:14;;;;;;;0.98;0.98;;;19.30;99.90;;;;;;5155992;28;20029;-60
2022/07/30 01:54:49;;;;;;;1.30;0.90;;;19.30;99.90;;;;;;5197269;28;20130;-61
2022/07/30 01:57:22;;;;;;;0.70;0.70;;;19.30;99.90;;;;;;5206584;28;20232;-61
2022/07/30 02:00:02;;;;;;;1.02;1.02;;;19.20;99.90;;;;;;5237729;28;20305;-60
2022/07/30 02:02:41;;;;;;;1.13;1.02;;;19.20;99.90;;;;;;5222693;28;20039;-61
2022/07/30 02:05:13;;;;;;;0.77;0.77;;;19.10;99.90;;;;;;5207928;28;20204;-61
2022/07/30 02:07:53;;;;;;;2.08;1.08;;;19.10;99.90;;;;;;5222256;28;20317;-61
2022/07/30 02:10:41;;;;;;;1.30;1.20;;;19.10;99.90;;;;;;5198220;28;20037;-61
2022/07/30 02:13:19;;;;;;;0.85;0.80;;;19.00;99.90;;;;;;5182778;28;20206;-61
2022/07/30 02:15:59;;;;;;;1.20;1.10;;;18.90;99.90;;;;;;5221711;28;20230;-61
2022/07/30 02:18:37;;;;;;;1.45;1.05;;;19.00;99.90;;;;;;5235900;28;20033;-61
2022/07/30 02:21:12;;;;;;;1.13;1.02;;;19.00;99.90;;;;;;5236837;28;20023;-61
2022/07/30 02:23:47;;;;;;;1.30;1.20;;;18.90;99.90;;;;;;5199292;28;20033;-60
2022/07/30 02:26:21;;;;;;;2.47;1.30;;;18.90;99.90;;;;;;5216651;28;20123;-61
2022/07/30 02:28:59;;;;;;;1.30;1.20;;;18.90;99.90;;;;;;5219738;28;20029;-60
2022/07/30 02:31:32;;;;;;;1.20;1.10;;;18.90;99.90;;;;;;5217731;28;20332;-61
2022/07/30 02:34:05;;;;;;;1.58;1.25;;;18.90;99.90;;;;;;5218759;28;20032;-60
2022/07/30 02:36:38;;;;;;;1.50;1.40;;;18.90;99.90;;;;;;5198505;28;20029;-61
2022/07/30 02:39:12;;;;;;;6.78;1.75;;;18.90;99.90;;;;;;5218864;28;20033;-61
2022/07/30 02:41:45;;;;;;;1.52;1.42;;;18.90;99.90;;;;;;5219933;28;20050;-61
2022/07/30 02:44:19;;;;;;;1.70;1.60;;;18.90;99.90;;;;;;5218523;28;20202;-60
2022/07/30 02:46:57;;;;;;;1.63;1.40;;;18.90;99.90;;;;;;5198974;28;20032;-61
2022/07/30 02:49:34;;;;;;;2.60;2.10;;;19.00;99.90;;;;;;5217451;28;20027;-60
2022/07/30 02:52:12;;;;;;;2.03;1.88;;;19.10;99.90;;;;;;5198972;28;20033;-60
2022/07/30 02:54:45;;;;;;;2.20;2.00;;;19.10;99.90;;;;;;5211872;28;20021;-61
2022/07/30 02:57:21;;;;;;;2.92;2.10;;;19.10;99.90;;;;;;5216069;28;20016;-60
2022/07/30 02:59:58;;;;;;;3.17;2.45;;;19.10;99.90;;;;;;5216055;28;20035;-62
2022/07/30 03:02:35;;;;;;;2.10;2.00;;;19.00;99.90;;;;;;5219936;28;20352;-61
2022/07/30 03:05:07;;;;;;;2.30;2.10;;;19.00;99.90;;;;;;5188206;28;20342;-60
2022/07/30 03:07:42;;;;;;;2.65;2.30;;;19.00;99.90;;;;;;5215288;28;20027;-61
2022/07/30 03:10:16;;;;;;;2.60;2.22;;;19.00;99.90;;;;;;5217420;28;20303;-61
2022/07/30 03:12:48;;;;;;;;;;;19.10;99.90;;;;;;5203684;28;20047;-61
2022/07/30 03:15:19;;;;;;;2.55;1.73;;;19.10;99.90;;;;;;5218937;28;20484;-60
2022/07/30 03:17:52;;;;;;;2.50;2.30;;;19.10;99.90;;;;;;5221021;28;20047;-62
2022/07/30 03:20:29;;;;;;;2.15;1.95;;;19.10;99.90;;;;;;5201725;28;20348;-61
2022/07/30 03:23:03;;;;;;;1.60;1.30;;;19.10;99.90;;;;;;5215024;28;20510;-65
2022/07/30 03:25:35;;;;;;;1.98;1.77;;;19.10;99.90;;;;;;5216701;28;20225;-61
2022/07/30 03:28:07;;;;;;;1.77;1.58;;;19.20;99.90;;;;;;5214739;28;20579;-61
2022/07/30 03:30:38;;;;;;;1.85;1.70;;;19.20;99.90;;;;;;5216239;28;20467;-61
2022/07/30 03:33:14;;;;;;;2.80;1.83;;;19.30;99.90;;;;;;5195225;28;20037;-61
2022/07/30 03:35:47;;;;;;;1.98;1.77;;;19.20;99.90;;;;;;5218682;28;20029;-61
2022/07/30 03:38:19;;;;;;;1.92;1.73;;;19.30;99.90;;;;;;5214959;28;20226;-61
2022/07/30 03:40:51;;;;;;;1.80;1.70;;;19.30;99.90;;;;;;5196332;28;20017;-62
2022/07/30 03:43:23;;;;;;;2.13;1.65;;;19.10;99.90;;;;;;5225191;28;20047;-70
2022/07/30 03:45:56;;;;;;;2.75;1.90;;;18.80;99.90;;;;;;5217793;28;20031;-67
2022/07/30 03:48:28;;;;;;;2.17;1.98;;;18.50;99.90;;;;;;5235085;28;20347;-66
2022/07/30 03:51:09;;;;;;;2.80;2.00;;;18.30;99.90;;;;;;5200694;28;20504;-65
2022/07/30 03:53:41;;;;;;;2.00;1.80;;;18.20;99.90;;;;;;5175917;28;20252;-65
2022/07/30 03:56:16;;;;;;;2.25;1.90;;;18.10;99.90;;;;;;5215373;28;20016;-65
2022/07/30 03:58:49;;;;;;;2.67;1.85;;;18.20;99.90;;;;;;5191659;28;20036;-63
2022/07/30 04:01:28;;;;;;;1.80;1.70;;;18.30;99.90;;;;;;5197940;28;20017;-67
2022/07/30 04:04:09;;;;;;;2.20;1.90;;;18.30;99.90;;;;;;5180206;28;20031;-64
2022/07/30 04:06:46;;;;;;;1.85;1.75;;;18.30;99.90;;;;;;5186074;28;20048;-64
2022/07/30 04:09:20;;;;;;;2.28;2.08;;;18.50;99.90;;;;;;5216760;28;20024;-62
2022/07/30 04:11:52;;;;;;;;;;;18.60;99.90;;;;;;5197111;28;20032;-62
2022/07/30 04:14:23;;;;;;;2.40;2.20;;;18.60;99.90;;;;;;5195988;28;20134;-62
2022/07/30 04:17:03;;;;;;;2.00;1.77;;;18.70;99.90;;;;;;5197174;28;20316;-61
2022/07/30 04:19:45;;;;;;;1.95;1.75;;;18.80;99.90;;;;;;5212785;28;20223;-62
2022/07/30 04:22:22;;;;;;;2.03;1.83;;;18.90;99.90;;;;;;5211655;28;20032;-62
2022/07/30 04:24:57;;;;;;;2.42;2.03;;;18.90;99.90;;;;;;5214411;28;20050;-61
2022/07/30 04:27:30;;;;;;;2.33;2.13;;;19.00;99.90;;;;;;5216948;28;20013;-61
2022/07/30 04:30:10;;;;;;;1.73;1.52;;;19.00;99.90;;;;;;5216146;28;20158;-61
2022/07/30 04:32:42;;;;;;;2.05;1.85;;;19.00;99.90;;;;;;5196111;28;20059;-62
2022/07/30 04:35:15;;;;;;;2.42;2.22;;;19.10;99.90;;;;;;5216811;28;20036;-62
2022/07/30 04:37:47;;;;;;;2.30;1.60;;;19.10;99.90;;;;;;5198510;28;20374;-61
2022/07/30 04:40:18;;;;;;;2.20;1.83;;;19.10;99.90;;;;;;5181662;28;20449;-62
2022/07/30 04:42:52;;;;;;;1.95;1.75;;;19.10;99.90;;;;;;5227598;28;20296;-61
2022/07/30 04:45:24;;;;;;;1.85;1.67;;;19.20;99.90;;;;;;5215244;28;20025;-62
2022/07/30 04:47:55;;;;;;;2.08;1.83;;;19.20;99.90;;;;;;5196070;28;20406;-62
2022/07/30 04:50:34;;;;;;;2.25;2.10;;;19.20;99.90;;;;;;5196623;28;20218;-62
2022/07/30 04:53:09;;;;;;;1.67;1.58;;;19.20;99.90;;;;;;5196919;28;20031;-61
2022/07/30 04:55:44;;;;;;;2.10;1.90;;;19.20;99.90;;;;;;5196377;28;20025;-63
2022/07/30 04:58:22;;;;;;;1.85;1.75;;;19.30;99.90;;;;;;5212384;28;20317;-62
2022/07/30 05:00:56;;;;;;;1.83;1.70;;;19.30;99.90;;;;;;5219040;28;20680;-62
2022/07/30 05:03:30;;;;;;;1.40;1.30;;;19.30;99.90;;;;;;5197159;28;20305;-61
2022/07/30 05:06:02;;;;;;;1.83;1.50;;;19.40;99.90;;;;;;5189179;28;20051;-62
2022/07/30 05:08:39;;;;;;;1.58;1.42;;;19.30;99.90;;;;;;5195934;28;20037;-60
2022/07/30 05:11:17;;;;;;;1.65;1.52;;;19.30;99.90;;;;;;5213127;28;20024;-61
2022/07/30 05:13:51;;;;;;;1.23;1.13;;;19.20;99.90;;;;;;5191095;28;20033;-63
2022/07/30 05:16:24;;;;;;;1.50;1.40;;;19.20;99.90;;;;;;5175085;28;20330;-61
2022/07/30 05:18:56;;;;;;;1.73;1.63;;;19.30;99.90;;;;;;5205148;28;20803;-61
2022/07/30 05:21:35;;;;;;;1.60;1.50;;;19.20;99.90;;;;;;5212879;28;20106;-61
2022/07/30 05:24:06;;;;;;;1.48;1.38;;;19.20;99.90;;;;;;5195951;28;20032;-62
2022/07/30 05:26:40;;;;;;;1.20;1.15;;;19.20;99.90;;;;;;5194905;28;20025;-62
2022/07/30 05:29:11;;;;;;;0.93;0.93;;;19.20;99.90;;;;;;5194173;28;20035;-62
2022/07/30 05:31:44;;;;;;;1.73;0.90;;;19.30;99.90;;;;;;5194239;28;20029;-61
2022/07/30 05:34:16;;;;;;;0.98;0.98;;;19.20;99.90;;;;;;5213641;28;20025;-62
2022/07/30 05:36:50;;;;;;;1.70;1.17;;;19.10;99.90;;;;;;5197008;28;20035;-63
2022/07/30 05:39:26;;;;;;;1.35;1.25;;;18.90;99.90;;;;;;5198187;28;20391;-61
2022/07/30 05:42:00;;;;;;;1.20;1.05;;;18.80;99.90;;;;;;5197347;28;20029;-64
2022/07/30 05:44:31;;;;;;;1.90;1.67;;;18.70;99.90;;;;;;5195537;28;20206;-64
2022/07/30 05:47:03;;;;;;;3.17;1.30;;;18.50;99.90;;;;;;5194023;28;20261;-62
2022/07/30 05:49:38;;;;;;;1.15;1.05;;;18.30;99.90;;;;;;5206006;28;20017;-62
2022/07/30 05:52:09;;;;;;;1.15;1.10;;;18.20;99.90;;;;;;5216566;28;20197;-63
2022/07/30 05:54:44;;;;;;;1.50;1.40;;;18.00;99.90;;;;;;5198630;28;20120;-65
2022/07/30 05:57:17;;;;;;;3.55;1.60;;;17.90;99.90;;;;;;5181541;28;20043;-63
2022/07/30 05:59:51;;;;;;;1.50;1.40;;;17.80;99.90;;;;;;5198247;28;20768;-66
2022/07/30 06:02:24;;;;;;;2.63;1.50;;;17.80;99.90;;;;;;5218429;28;20559;-66
2022/07/30 06:04:56;;;;;;;1.48;1.38;;;17.80;99.90;;;;;;5212999;28;20361;-64
2022/07/30 06:07:30;;;;;;;1.40;1.30;;;17.70;99.90;;;;;;5198023;28;20037;-64
2022/07/30 06:10:02;;;;;;;1.67;1.58;;;17.70;99.90;;;;;;5198001;28;20021;-64
2022/07/30 06:12:35;;;;;;;1.60;1.50;;;17.60;99.90;;;;;;5215911;28;20032;-63
2022/07/30 06:15:11;;;;;;;1.30;1.20;;;17.70;99.90;;;;;;5218883;28;20031;-64
2022/07/30 06:17:46;;;;;;;1.30;1.20;;;17.70;99.90;;;;;;5197965;28;20047;-66
2022/07/30 06:20:20;;;;;;;1.73;1.63;;;17.60;99.90;;;;;;5195333;28;20234;-65
2022/07/30 06:22:51;;;;;;;1.43;1.33;;;17.60;99.90;;;;;;5218416;28;20482;-70
2022/07/30 06:25:22;;;;;;;2.20;1.45;;;17.60;99.90;;;;;;5199239;28;20024;-67
2022/07/30 06:27:56;;;;;;;1.27;1.08;;;17.60;99.90;;;;;;5200897;28;20284;-64
2022/07/30 06:30:30;;;;;;;1.30;1.20;;;17.60;99.90;;;;;;5215540;28;20021;-70
2022/07/30 06:33:01;;;;;;;1.40;1.30;;;17.60;99.90;;;;;;5215327;28;20115;-65
2022/07/30 06:35:35;;;;;;;1.35;1.13;;;17.60;99.90;;;;;;5216328;28;20115;-67
2022/07/30 06:38:06;;;;;;;1.73;1.40;;;17.60;99.90;;;;;;5198103;28;20270;-63
2022/07/30 06:40:41;;;;;;;1.67;1.58;;;17.60;99.90;;;;;;5217911;28;20020;-71
2022/07/30 06:43:17;;;;;;;1.20;1.17;;;17.60;99.90;;;;;;5215362;28;20020;-65
2022/07/30 06:45:49;;;;;;;1.55;1.40;;;17.60;99.90;;;;;;5197770;28;20024;-65
2022/07/30 06:48:20;;;;;;;1.52;1.42;;;17.60;99.90;;;;;;5214817;28;20179;-63
2022/07/30 06:50:54;;;;;;;1.25;1.15;;;17.60;99.90;;;;;;5197900;28;20203;-65
2022/07/30 06:53:26;;;;;;;;;;;17.50;99.90;;;;;;5181666;28;20043;-65
2022/07/30 06:56:02;;;;;;;1.60;1.50;;;17.60;99.90;;;;;;5215303;28;20209;-64
2022/07/30 06:58:36;;;;;;;1.50;1.40;;;17.60;99.90;;;;;;5181710;28;20044;-66
2022/07/30 07:01:09;;;;;;;1.45;1.35;;;17.60;99.90;;;;;;5215154;28;20320;-66
2022/07/30 07:03:43;;;;;;;1.50;1.40;;;17.60;99.90;;;;;;5215971;28;20024;-70
2022/07/30 07:06:16;;;;;;;1.40;1.30;;;17.60;99.90;;;;;;5169326;28;20314;-72
2022/07/30 07:08:51;;;;;;;1.60;1.45;;;17.60;99.90;;;;;;5216363;28;20258;-72
2022/07/30 07:11:23;;;;;;;3.10;1.70;;;17.60;99.90;;;;;;5217781;28;20492;-65
2022/07/30 07:13:54;;;;;;;1.27;1.17;;;17.60;99.90;;;;;;5201826;28;20290;-65
2022/07/30 07:16:30;;;;;;;1.60;1.20;;;17.60;99.90;;;;;;5196839;28;20059;-66
2022/07/30 07:19:03;;;;;;;1.63;1.52;;;17.60;99.90;;;;;;5215345;28;20033;-66
2022/07/30 07:21:34;;;;;;;1.50;1.40;;;17.70;99.90;;;;;;5213963;28;20029;-70
2022/07/30 07:24:06;;;;;;;1.40;1.00;;;17.60;99.90;;;;;;5215056;28;20025;-72
2022/07/30 07:26:37;;;;;;;1.13;1.10;;;17.70;99.90;;;;;;5197526;28;20035;-63
2022/07/30 07:29:09;;;;;;;1.63;1.38;;;17.70;99.90;;;;;;5196127;28;20039;-63
2022/07/30 07:31:40;;;;;;;1.35;1.27;;;17.70;99.90;;;;;;5197420;28;20021;-64
2022/07/30 07:34:11;;;;;;;1.40;1.30;;;17.70;99.90;;;;;;5198448;28;20025;-65
2022/07/30 07:36:45;;;;;;;1.63;1.45;;;17.80;99.90;;;;;;5214501;28;20021;-64
2022/07/30 07:39:16;;;;;;;1.13;1.10;;;17.80;99.90;;;;;;5218821;28;20050;-65
2022/07/30 07:41:47;;;;;;;1.48;1.38;;;17.80;99.90;;;;;;5215935;28;20219;-64
2022/07/30 07:44:18;;;;;;;2.00;1.48;;;17.90;99.90;;;;;;5217294;28;20029;-66
2022/07/30 07:46:50;;;;;;;1.30;1.20;;;18.00;99.90;;;;;;5183129;28;20368;-64
2022/07/30 07:49:22;;;;;;;1.30;1.20;;;18.00;99.90;;;;;;5226239;28;20328;-64
2022/07/30 07:51:58;;;;;;;1.48;1.38;;;18.10;99.90;;;;;;5223909;28;20229;-66
2022/07/30 07:54:36;;;;;;;1.52;1.35;;;18.10;99.90;;;;;;5213513;28;20039;-65
2022/07/30 07:57:10;;;;;;;2.17;1.63;;;18.20;99.90;;;;;;5180581;28;20336;-64
2022/07/30 07:59:41;;;;;;;1.83;1.70;;;18.20;99.90;;;;;;5195356;28;20055;-67
2022/07/30 08:02:15;;;;;;;2.50;1.73;;;18.10;99.90;;;;;;5215243;28;20028;-66
2022/07/30 08:04:48;;;;;;;1.35;1.25;;;18.20;99.90;;;;;;5208676;28;20036;-70
2022/07/30 08:07:22;;;;;;;1.57;1.47;;;18.20;99.90;;;;;;5235357;28;20035;-63
2022/07/30 08:09:55;;;;;;;1.70;1.60;;;18.20;99.90;;;;;;5214174;28;20024;-70
2022/07/30 08:12:27;;;;;;;1.73;1.63;;;18.10;99.90;;;;;;5214119;28;20290;-69
2022/07/30 08:15:00;;;;;;;1.70;1.60;;;18.10;99.90;;;;;;5214912;28;20025;-64
2022/07/30 08:17:31;;;;;;;1.60;1.50;;;18.10;99.90;;;;;;5213486;28;20029;-63
2022/07/30 08:20:03;;;;;;;2.47;1.60;;;18.10;99.90;;;;;;5214980;28;20376;-65
2022/07/30 08:22:35;;;;;;;1.40;1.30;;;18.10;99.90;;;;;;5213831;28;20024;-66
2022/07/30 08:25:13;;;;;;;2.63;1.98;;;18.10;99.90;;;;;;5196443;28;20030;-66
2022/07/30 08:27:47;;;;;;;1.80;1.70;;;18.20;99.90;;;;;;5195758;28;20021;-64
2022/07/30 08:30:22;;;;;;;2.03;1.60;;;18.10;99.90;;;;;;5195604;28;20804;-70
2022/07/30 08:32:55;;;;;;;;;;;18.10;99.90;;;;;;5181749;28;20029;-63
2022/07/30 08:35:29;;;;;;;3.05;2.05;;;18.20;99.90;;;;;;5196439;28;19907;-64
2022/07/30 08:38:00;;;;;;;2.22;1.70;;;18.10;99.90;;;;;;5195774;28;20040;-69
2022/07/30 08:40:33;;;;;;;2.15;2.05;;;18.20;99.90;;;;;;5195844;28;20222;-70
2022/07/30 08:43:09;;;;;;;1.90;1.75;;;18.20;99.90;;;;;;5213633;28;20039;-68
2022/07/30 08:45:44;;;;;;;1.92;1.83;;;18.30;99.90;;;;;;5195509;28;20013;-65
2022/07/30 08:48:19;;;;;;;1.95;1.85;;;18.30;99.90;;;;;;5194961;28;20032;-65
2022/07/30 08:50:54;;;;;;;2.35;1.90;;;18.30;99.90;;;;;;5213606;28;20321;-66
2022/07/30 08:53:31;;;;;;;2.00;1.55;;;18.30;99.90;;;;;;5195333;28;20027;-65
2022/07/30 08:56:03;;;;;;;3.00;1.60;;;18.30;99.90;;;;;;5212271;28;20230;-64
2022/07/30 08:58:34;;;;;;;2.22;2.03;;;18.30;99.90;;;;;;5213834;28;20027;-64
2022/07/30 09:01:11;;;;;;;2.00;1.90;;;18.30;99.90;;;;;;5213283;28;20339;-68
2022/07/30 09:03:44;;;;;;;2.35;2.15;;;18.30;99.90;;;;;;5214306;28;20017;-66
2022/07/30 09:06:21;;;;;;;3.65;2.33;;;18.20;99.90;;;;;;5202178;28;20049;-67
2022/07/30 09:08:53;;;;;;;3.05;2.20;;;18.30;99.90;;;;;;5195925;28;20310;-66
2022/07/30 09:11:26;;;;;;;2.95;2.65;;;18.20;99.90;;;;;;5195310;28;20337;-65
2022/07/30 09:14:10;;;;;;;3.00;2.70;;;18.10;99.90;;;;;;5231436;28;20058;-62
2022/07/30 09:16:45;;;;;;;2.70;2.50;;;18.10;99.90;;;;;;5238037;28;20374;-65
2022/07/30 09:19:20;;;;;;;3.33;2.33;;;18.00;99.90;;;;;;5223808;28;20341;-67
2022/07/30 09:22:00;;;;;;;3.30;3.00;;;18.10;99.90;;;;;;5217359;28;20031;-67
2022/07/30 09:24:42;;;;;;;3.15;2.58;;;18.10;99.90;;;;;;5186168;28;20028;-63
2022/07/30 09:27:13;;;;;;;6.43;2.88;;;18.20;99.90;;;;;;5196517;28;20028;-65
2022/07/30 09:29:57;;;;;;;4.28;3.05;;;18.30;99.90;;;;;;5178346;28;20251;-64
2022/07/30 09:32:49;;;;;;;3.53;2.58;;;18.40;99.90;;;;;;5196489;28;20029;-64
2022/07/30 09:35:23;;;;;;;3.47;3.17;;;18.60;99.90;;;;;;5209578;28;21038;-68
2022/07/30 09:38:02;;;;;;;3.65;3.25;;;18.60;99.90;;;;;;5199275;28;20343;-72
2022/07/30 09:40:34;;;;;;;3.97;3.58;;;18.70;99.90;;;;;;5215590;28;20692;-64
2022/07/30 09:43:13;;;;;;;4.03;3.17;;;18.70;99.90;;;;;;5194411;28;20056;-65
2022/07/30 09:45:57;;;;;;;5.13;3.03;;;18.70;99.90;;;;;;5178657;28;20214;-65
2022/07/30 09:48:31;;;;;;;6.68;2.88;;;18.80;99.90;;;;;;5202725;28;20023;-66
2022/07/30 09:51:02;;;;;;;3.50;2.83;;;18.90;99.90;;;;;;5200496;28;20024;-67
2022/07/30 09:53:34;;;;;;;3.45;3.13;;;19.00;99.90;;;;;;5217074;28;20025;-64
2022/07/30 09:56:23;;;;;;;4.00;3.33;;;19.00;99.90;;;;;;5177593;28;20274;-62
2022/07/30 09:58:58;;;;;;;3.42;3.13;;;19.10;99.90;;;;;;5195989;28;20030;-67
2022/07/30 10:01:49;;;;;;;4.03;3.42;;;19.10;99.90;;;;;;5218573;28;20359;-63
2022/07/30 10:04:30;;;;;;;4.18;3.05;;;19.20;99.90;;;;;;5170338;28;20024;-64
2022/07/30 10:07:08;;;;;;;3.95;3.28;;;19.30;99.90;;;;;;5229965;28;20026;-66
2022/07/30 10:09:44;;;;;;;2.97;2.60;;;19.50;99.90;;;;;;5203655;28;20030;-64
2022/07/30 10:12:16;;;;;;;3.40;3.10;;;19.70;99.90;;;;;;5216141;28;20041;-62
2022/07/30 10:14:50;;;;;;;4.85;2.92;;;20.10;99.90;;;;;;5216092;28;20031;-63
2022/07/30 10:17:22;;;;;;;4.55;3.25;;;20.30;99.90;;;;;;5218430;28;20016;-64
2022/07/30 10:19:59;;;;;;;3.72;3.25;;;20.70;99.90;;;;;;5199455;28;20032;-63
2022/07/30 10:22:30;;;;;;;7.18;2.75;;;20.60;99.90;;;;;;5216772;28;20017;-65
2022/07/30 10:25:05;;;;;;;3.28;2.97;;;20.90;99.90;;;;;;5200503;28;20346;-64
2022/07/30 10:27:37;;;;;;;4.03;2.72;;;21.00;99.90;;;;;;5216535;28;20343;-63
2022/07/30 10:30:08;;;;;;;3.55;2.67;;;21.20;99.90;;;;;;5199391;28;20051;-65
2022/07/30 10:32:42;;;;;;;2.85;2.40;;;21.50;99.90;;;;;;5237075;28;20686;-66
2022/07/30 10:35:16;;;;;;;4.18;3.03;;;21.50;99.90;;;;;;5227724;28;20088;-63
2022/07/30 10:37:53;;;;;;;3.03;2.58;;;21.70;99.90;;;;;;5167034;28;20028;-64
2022/07/30 10:40:42;;;;;;;3.10;2.80;;;21.70;99.90;;;;;;5209021;28;20043;-64
2022/07/30 10:43:45;;;;;;;2.60;2.35;;;21.70;99.90;;;;;;5208217;28;20276;-64
2022/07/30 10:46:38;;;;;;;3.75;2.58;;;22.10;99.90;;;;;;5211642;28;20036;-64
2022/07/30 10:49:20;;;;;;;3.17;2.30;;;22.40;99.90;;;;;;5215821;28;20202;-64
2022/07/30 10:51:58;;;;;;;2.67;2.40;;;23.10;99.90;;;;;;5198772;28;20035;-65
2022/07/30 10:54:32;;;;;;;3.42;2.50;;;23.40;99.90;;;;;;5214870;28;20029;-64
2022/07/30 10:57:14;;;;;;;2.97;2.65;;;23.50;99.90;;;;;;5196390;28;20218;-64
2022/07/30 10:59:54;;;;;;;5.30;2.90;;;23.20;99.90;;;;;;5216280;28;20047;-65
2022/07/30 11:02:33;;;;;;;3.05;2.50;;;23.20;99.90;;;;;;5213681;28;20428;-64
2022/07/30 11:05:19;;;;;;;3.30;2.72;;;22.90;99.90;;;;;;5204316;28;20214;-63
2022/07/30 11:07:51;;;;;;;3.83;2.50;;;23.10;99.90;;;;;;5217860;28;20070;-64
2022/07/30 11:10:40;;;;;;;2.97;2.67;;;23.30;99.90;;;;;;5214517;28;20041;-65
2022/07/30 11:13:14;;;;;;;2.90;2.15;;;23.30;99.90;;;;;;5215904;28;20040;-62
2022/07/30 11:16:02;;;;;;;2.63;2.43;;;22.90;99.90;;;;;;5180873;28;20032;-65
2022/07/30 11:19:05;;;;;;;2.50;2.30;;;23.30;99.90;;;;;;5193330;28;20609;-65
2022/07/30 11:21:38;;;;;;;2.55;2.35;;;23.20;99.90;;;;;;5194000;28;20306;-64
2022/07/30 11:24:43;;;;;;;2.60;2.40;;;22.90;99.90;;;;;;5193850;28;20032;-63
2022/07/30 11:27:41;;;;;;;3.10;2.60;;;22.90;99.90;;;;;;5187896;28;20021;-63
2022/07/30 11:30:15;;;;;;;3.08;2.35;;;22.90;99.90;;;;;;5237123;28;20197;-62
2022/07/30 11:33:19;;;;;;;2.42;2.20;;;22.80;99.90;;;;;;5236053;28;20172;-61
2022/07/30 11:36:11;;;;;;;3.05;2.30;;;23.00;99.90;;;;;;5211366;28;20029;-62
2022/07/30 11:38:55;;;;;;;2.78;2.40;;;22.60;99.90;;;;;;5215147;28;20323;-63
2022/07/30 11:41:28;;;;;;;2.78;2.30;;;22.70;99.90;;;;;;5214787;28;20258;-62
2022/07/30 11:44:30;;;;;;;3.00;2.30;;;22.70;99.90;;;;;;5199424;28;20054;-63
2022/07/30 11:47:04;;;;;;;2.50;2.15;;;23.00;99.90;;;;;;5197280;28;20035;-62
2022/07/30 11:49:38;;;;;;;3.95;2.20;;;22.70;99.90;;;;;;5223975;28;20017;-63
2022/07/30 11:52:21;;;;;;;2.78;2.38;;;23.30;99.90;;;;;;5218163;28;20026;-62
2022/07/30 11:54:53;;;;;;;3.15;2.22;;;23.10;99.90;;;;;;5233163;28;20271;-63
2022/07/30 11:57:43;;;;;;;3.25;2.35;;;22.60;99.90;;;;;;5211180;28;20028;-63
2022/07/30 12:00:17;;;;;;;2.63;2.42;;;22.70;99.90;;;;;;5196799;28;20044;-63
2022/07/30 12:02:49;;;;;;;3.15;2.67;;;22.70;99.90;;;;;;5195690;28;20059;-63
2022/07/30 12:05:26;;;;;;;2.83;2.53;;;22.50;99.90;;;;;;5186227;28;20059;-64
2022/07/30 12:08:04;;;;;;;2.47;2.25;;;22.50;99.90;;;;;;5197023;28;20027;-66
2022/07/30 12:10:37;;;;;;;2.78;2.08;;;22.50;99.90;;;;;;5222030;28;20507;-63
2022/07/30 12:13:13;;;;;;;2.22;2.03;;;22.80;99.90;;;;;;5214429;28;20206;-64
2022/07/30 12:15:48;;;;;;;2.70;2.20;;;23.10;99.90;;;;;;5196109;28;20306;-64
2022/07/30 12:18:25;;;;;;;3.25;2.65;;;23.00;99.90;;;;;;5197149;28;20043;-63
2022/07/30 12:21:00;;;;;;;2.40;2.10;;;22.90;99.90;;;;;;5201048;28;20044;-63
2022/07/30 12:23:31;;;;;;;;;;;22.90;99.90;;;;;;5197568;28;20294;-63
2022/07/30 12:26:02;;;;;;;2.60;2.40;;;22.90;99.90;;;;;;5214607;28;19908;-63
2022/07/30 12:28:34;;;;;;;2.80;2.47;;;22.80;99.90;;;;;;5180093;28;20024;-64
2022/07/30 12:31:13;;;;;;;4.03;2.55;;;22.60;99.90;;;;;;5227363;28;20250;-63
2022/07/30 12:33:44;;;;;;;2.33;2.13;;;22.70;99.90;;;;;;5199473;28;20035;-64
2022/07/30 12:36:35;;;;;;;2.13;1.80;;;23.00;99.90;;;;;;5213444;28;20130;-65
2022/07/30 12:39:20;;;;;;;2.35;2.15;;;23.30;99.90;;;;;;5182223;28;20033;-63
2022/07/30 12:41:57;;;;;;;2.25;1.77;;;23.30;99.90;;;;;;5195873;28;20226;-61
2022/07/30 12:44:40;;;;;;;2.53;2.10;;;23.60;99.90;;;;;;5181175;28;20047;-62
2022/07/30 12:47:28;;;;;;;2.08;1.90;;;23.80;99.90;;;;;;5218131;28;20228;-63
2022/07/30 12:50:02;;;;;;;2.17;1.77;;;23.90;99.90;;;;;;5219532;28;20218;-64
2022/07/30 12:52:36;;;;;;;2.30;2.10;;;23.60;99.90;;;;;;5221383;28;20031;-62
2022/07/30 12:55:09;;;;;;;2.10;1.90;;;23.80;99.90;;;;;;5204265;28;20706;-64
2022/07/30 12:58:01;;;;;;;3.00;2.17;;;24.20;99.90;;;;;;5221344;28;20244;-62
2022/07/30 13:00:54;;;;;;;1.95;1.75;;;23.70;99.90;;;;;;5221153;28;20229;-62
2022/07/30 13:03:38;;;;;;;2.00;1.90;;;23.90;99.90;;;;;;5180823;28;20037;-62
2022/07/30 13:06:22;;;;;;;3.78;2.03;;;23.80;99.90;;;;;;5205326;28;20051;-61
2022/07/30 13:09:01;;;;;;;2.38;2.08;;;23.80;99.90;;;;;;5222910;28;20319;-62
2022/07/30 13:11:41;;;;;;;3.00;1.80;;;24.00;99.90;;;;;;5200046;28;20033;-62
2022/07/30 13:14:18;;;;;;;3.22;2.10;;;24.20;99.90;;;;;;5217838;28;20013;-61
2022/07/30 13:16:57;;;;;;;2.78;2.55;;;24.10;99.90;;;;;;5217107;28;20273;-63
2022/07/30 13:19:31;;;;;;;2.20;2.00;;;23.60;99.90;;;;;;5217068;28;20326;-63
2022/07/30 13:22:02;;;;;;;4.45;2.03;;;23.90;99.90;;;;;;5211758;28;20032;-63
2022/07/30 13:24:33;;;;;;;2.13;1.92;;;23.90;99.90;;;;;;5237126;28;20043;-63
2022/07/30 13:27:07;;;;;;;2.00;1.88;;;23.90;99.90;;;;;;5221167;28;20028;-63
2022/07/30 13:29:38;;;;;;;2.65;2.03;;;23.70;99.90;;;;;;5238396;28;20017;-62
2022/07/30 13:32:15;;;;;;;3.38;2.45;;;23.60;99.90;;;;;;5220509;28;20028;-63